createdAt,value
2022-09-10T00:02:07.413Z,98313.48
2022-09-10T00:04:34.212Z,98310.67
2022-09-10T00:07:01.352Z,98308.64
2022-09-10T00:09:28.747Z,98305.54
2022-09-10T00:11:55.473Z,98306.38
2022-09-10T00:14:24.288Z,98313.29
2022-09-10T00:16:51.282Z,98318.05
2022-09-10T00:19:19.519Z,98320.98
2022-09-10T00:21:46.459Z,98317.31
2022-09-10T00:24:14.176Z,98315.99
2022-09-10T00:26:41.223Z,98316.95
2022-09-10T00:29:10.881Z,98312.82
2022-09-10T00:31:38.309Z,98316.59
2022-09-10T00:34:06.102Z,98315.14
2022-09-10T00:36:38.845Z,98315.08
2022-09-10T00:39:09.508Z,98310.59
2022-09-10T00:41:38.531Z,98306.98
2022-09-10T00:44:41.172Z,98306.52
2022-09-10T00:47:17.236Z,98306.67
2022-09-10T00:49:49.724Z,98302.11
2022-09-10T00:52:17.629Z,98303.53
2022-09-10T00:54:46.023Z,98304.20
2022-09-10T00:57:17.488Z,98307.65
2022-09-10T00:59:49.208Z,98311.64
2022-09-10T01:02:16.055Z,98320.94
2022-09-10T01:04:43.383Z,98329.30
2022-09-10T01:07:12.186Z,98333.73
2022-09-10T01:09:40.443Z,98336.59
2022-09-10T01:12:19.960Z,98336.20
2022-09-10T01:15:02.579Z,98332.53
2022-09-10T01:17:45.106Z,98329.45
2022-09-10T01:20:21.556Z,98330.66
2022-09-10T01:22:50.999Z,98333.09
2022-09-10T01:25:50.063Z,98322.69
2022-09-10T01:28:38.635Z,98320.03
2022-09-10T01:31:14.972Z,98324.63
2022-09-10T01:33:52.656Z,98328.76
2022-09-10T01:36:25.130Z,98325.67
2022-09-10T01:38:53.052Z,98317.52
2022-09-10T01:41:23.751Z,98312.69
2022-09-10T01:43:50.634Z,98311.00
2022-09-10T01:46:41.608Z,98311.94
2022-09-10T01:49:09.584Z,98312.35
2022-09-10T01:51:52.084Z,98309.29
2022-09-10T01:54:37.272Z,98307.85
2022-09-10T01:57:09.630Z,98309.70
2022-09-10T01:59:44.029Z,98310.27
2022-09-10T02:02:19.439Z,98314.95
2022-09-10T02:04:48.005Z,98311.56
2022-09-10T02:07:17.969Z,98311.33
2022-09-10T02:09:45.558Z,98312.52
2022-09-10T02:12:20.718Z,98307.87
2022-09-10T02:14:55.386Z,98300.94
2022-09-10T02:17:39.901Z,98296.58
2022-09-10T02:20:10.977Z,98288.86
2022-09-10T02:22:40.532Z,98286.26
2022-09-10T02:25:08.117Z,98281.27
2022-09-10T02:27:34.854Z,98274.52
2022-09-10T02:30:01.908Z,98277.39
2022-09-10T02:32:30.118Z,98276.90
2022-09-10T02:34:57.196Z,98271.35
2022-09-10T02:37:28.367Z,98269.27
2022-09-10T02:39:55.533Z,98265.21
2022-09-10T02:42:25.457Z,98271.80
2022-09-10T02:44:53.952Z,98269.79
2022-09-10T02:47:20.909Z,98265.58
2022-09-10T02:49:47.744Z,98267.86
2022-09-10T02:52:14.494Z,98272.48
2022-09-10T02:54:41.613Z,98271.35
2022-09-10T02:57:12.080Z,98267.06
2022-09-10T02:59:38.851Z,98266.02
2022-09-10T03:02:05.849Z,98272.30
2022-09-10T03:04:32.671Z,98275.55
2022-09-10T03:06:59.854Z,98274.36
2022-09-10T03:09:29.023Z,98277.45
2022-09-10T03:11:56.247Z,98276.40
2022-09-10T03:14:24.778Z,98277.44
2022-09-10T03:16:52.227Z,98279.95
2022-09-10T03:19:19.778Z,98281.92
2022-09-10T03:21:47.688Z,98278.73
2022-09-10T03:24:15.517Z,98270.22
2022-09-10T03:26:44.567Z,98267.02
2022-09-10T03:29:12.452Z,98261.42
2022-09-10T03:31:39.971Z,98262.60
2022-09-10T03:34:06.908Z,98256.30
2022-09-10T03:36:33.721Z,98258.60
2022-09-10T03:39:00.872Z,98258.71
2022-09-10T03:41:30.790Z,98259.27
2022-09-10T03:43:58.307Z,98257.09
2022-09-10T03:46:25.962Z,98256.08
2022-09-10T03:48:56.014Z,98258.42
2022-09-10T03:51:24.449Z,98259.27
2022-09-10T03:53:51.183Z,98262.25
2022-09-10T03:56:20.140Z,98262.29
2022-09-10T03:58:49.344Z,98267.47
2022-09-10T04:01:17.547Z,98271.01
2022-09-10T04:03:46.489Z,98271.41
2022-09-10T04:06:14.857Z,98276.69
2022-09-10T04:08:43.760Z,98278.04
2022-09-10T04:11:14.228Z,98279.45
2022-09-10T04:13:41.822Z,98281.60
2022-09-10T04:16:10.264Z,98284.16
2022-09-10T04:18:37.369Z,98284.36
2022-09-10T04:21:04.522Z,98286.19
2022-09-10T04:23:32.909Z,98288.66
2022-09-10T04:26:01.461Z,98286.95
2022-09-10T04:28:28.563Z,98282.95
2022-09-10T04:30:55.501Z,98281.64
2022-09-10T04:33:25.114Z,98281.55
2022-09-10T04:35:52.598Z,98281.98
2022-09-10T04:38:20.901Z,98284.29
2022-09-10T04:40:48.995Z,98286.33
2022-09-10T04:43:15.948Z,98284.84
2022-09-10T04:45:43.745Z,98291.14
2022-09-10T04:48:10.794Z,98294.64
2022-09-10T04:50:54.006Z,98289.73
2022-09-10T04:53:27.904Z,98286.94
2022-09-10T04:55:56.357Z,98281.41
2022-09-10T04:58:23.363Z,98280.50
2022-09-10T05:00:50.608Z,98271.70
2022-09-10T05:03:19.186Z,98271.09
2022-09-10T05:05:48.080Z,98268.12
2022-09-10T05:08:15.072Z,98264.69
2022-09-10T05:10:47.373Z,98262.41
2022-09-10T05:13:15.045Z,98262.92
2022-09-10T05:15:42.872Z,98256.31
2022-09-10T05:18:09.860Z,98250.70
2022-09-10T05:20:38.203Z,98245.35
2022-09-10T05:23:05.053Z,98242.94
2022-09-10T05:25:34.680Z,98240.45
2022-09-10T05:28:02.262Z,98243.48
2022-09-10T05:30:33.094Z,98237.56
2022-09-10T05:33:01.623Z,98236.27
2022-09-10T05:35:30.390Z,98227.84
2022-09-10T05:38:00.553Z,98228.09
2022-09-10T05:40:29.462Z,98223.16
2022-09-10T05:42:56.965Z,98220.43
2022-09-10T05:45:24.158Z,98225.73
2022-09-10T05:47:51.609Z,98227.36
2022-09-10T05:50:21.855Z,98234.38
2022-09-10T05:52:49.285Z,98232.86
2022-09-10T05:55:17.358Z,98232.86
2022-09-10T05:57:44.122Z,98233.80
2022-09-10T06:00:15.546Z,98232.41
2022-09-10T06:02:46.128Z,98232.18
2022-09-10T06:05:26.628Z,98231.62
2022-09-10T06:07:54.192Z,98228.89
2022-09-10T06:10:20.989Z,98229.37
2022-09-10T06:12:52.189Z,98228.01
2022-09-10T06:15:21.315Z,98232.39
2022-09-10T06:17:50.171Z,98230.73
2022-09-10T06:20:17.700Z,98228.35
2022-09-10T06:22:45.911Z,98230.05
2022-09-10T06:25:12.871Z,98226.47
2022-09-10T06:27:40.883Z,98224.48
2022-09-10T06:30:08.727Z,98224.17
2022-09-10T06:32:39.449Z,98215.77
2022-09-10T06:35:08.902Z,98218.40
2022-09-10T06:37:37.103Z,98220.89
2022-09-10T06:40:07.042Z,98216.66
2022-09-10T06:42:34.852Z,98218.17
2022-09-10T06:45:09.981Z,98215.88
2022-09-10T06:50:51.176Z,98214.54
2022-09-10T06:53:18.077Z,98217.89
2022-09-10T06:55:46.041Z,98217.06
2022-09-10T06:58:13.505Z,98214.88
2022-09-10T07:00:40.282Z,98212.72
2022-09-10T07:03:07.156Z,98207.52
2022-09-10T07:05:34.235Z,98209.05
2022-09-10T07:08:02.241Z,98209.91
2022-09-10T07:10:31.441Z,98199.95
2022-09-10T07:12:58.280Z,98200.61
2022-09-10T07:15:25.001Z,98196.16
2022-09-10T07:17:51.748Z,98193.89
2022-09-10T07:20:23.437Z,98190.53
2022-09-10T07:22:54.910Z,98193.27
2022-09-10T07:25:25.112Z,98197.55
2022-09-10T07:27:57.089Z,98197.96
2022-09-10T07:30:24.873Z,98195.38
2022-09-10T07:32:52.140Z,98196.98
2022-09-10T07:35:24.236Z,98200.27
2022-09-10T07:37:51.262Z,98205.56
2022-09-10T07:40:19.993Z,98209.73
2022-09-10T07:42:46.993Z,98214.80
2022-09-10T07:45:16.269Z,98217.94
2022-09-10T07:47:44.779Z,98220.66
2022-09-10T07:50:12.206Z,98225.50
2022-09-10T07:52:39.305Z,98230.48
2022-09-10T07:55:07.128Z,98235.06
2022-09-10T07:57:38.046Z,98234.42
2022-09-10T08:00:08.138Z,98236.76
2022-09-10T08:02:43.274Z,98240.23
2022-09-10T08:05:13.806Z,98244.90
2022-09-10T08:07:41.707Z,98250.45
2022-09-10T08:10:10.641Z,98257.23
2022-09-10T08:12:39.914Z,98260.66
2022-09-10T08:15:08.636Z,98260.65
2022-09-10T08:17:36.966Z,98265.17
2022-09-10T08:20:07.847Z,98263.48
2022-09-10T08:22:35.832Z,98264.86
2022-09-10T08:25:03.489Z,98261.34
2022-09-10T08:27:33.612Z,98264.42
2022-09-10T08:30:02.205Z,98261.45
2022-09-10T08:32:30.049Z,98262.70
2022-09-10T08:34:57.022Z,98268.39
2022-09-10T08:37:25.432Z,98270.42
2022-09-10T08:39:52.902Z,98269.33
2022-09-10T08:42:28.805Z,98271.29
2022-09-10T08:45:08.428Z,98273.16
2022-09-10T08:48:09.933Z,98273.58
2022-09-10T08:50:47.965Z,98269.83
2022-09-10T08:53:26.245Z,98268.20
2022-09-10T08:55:59.748Z,98268.56
2022-09-10T08:58:44.911Z,98270.92
2022-09-10T09:01:22.363Z,98266.89
2022-09-10T09:03:54.063Z,98267.00
2022-09-10T09:06:38.243Z,98263.00
2022-09-10T09:09:06.020Z,98258.33
2022-09-10T09:11:40.034Z,98257.95
2022-09-10T09:14:31.068Z,98251.38
2022-09-10T09:17:01.700Z,98250.83
2022-09-10T09:19:29.529Z,98249.92
2022-09-10T09:22:05.775Z,98251.00
2022-09-10T09:24:45.635Z,98249.73
2022-09-10T09:27:17.545Z,98252.42
2022-09-10T09:29:52.068Z,98248.90
2022-09-10T09:32:21.850Z,98248.07
2022-09-10T09:34:54.538Z,98248.55
2022-09-10T09:37:30.176Z,98249.38
2022-09-10T09:40:27.233Z,98249.95
2022-09-10T09:42:57.438Z,98248.23
2022-09-10T09:45:39.111Z,98244.54
2022-09-10T09:48:11.304Z,98246.34
2022-09-10T09:50:44.987Z,98246.73
2022-09-10T09:53:19.491Z,98243.70
2022-09-10T09:55:52.254Z,98244.15
2022-09-10T09:58:24.259Z,98238.33
2022-09-10T10:01:11.135Z,98239.92
2022-09-10T10:03:51.837Z,98237.19
2022-09-10T10:06:25.204Z,98236.20
2022-09-10T10:08:56.369Z,98229.91
2022-09-10T10:11:38.672Z,98225.69
2022-09-10T10:14:21.552Z,98220.61
2022-09-10T10:16:52.278Z,98218.17
2022-09-10T10:19:34.427Z,98216.27
2022-09-10T10:22:17.254Z,98212.02
2022-09-10T10:24:45.741Z,98215.39
2022-09-10T10:27:35.325Z,98211.36
2022-09-10T10:30:22.148Z,98210.81
2022-09-10T10:32:53.479Z,98206.63
2022-09-10T10:35:24.991Z,98212.83
2022-09-10T10:38:14.842Z,98210.77
2022-09-10T10:40:48.676Z,98204.23
2022-09-10T10:43:51.099Z,98202.00
2022-09-10T10:46:22.174Z,98198.77
2022-09-10T10:49:12.319Z,98199.04
2022-09-10T10:52:00.526Z,98195.04
2022-09-10T10:54:50.572Z,98194.86
2022-09-10T10:57:48.762Z,98190.12
2022-09-10T11:00:19.013Z,98194.60
2022-09-10T11:03:05.891Z,98191.08
2022-09-10T11:05:38.714Z,98189.42
2022-09-10T11:08:12.372Z,98190.72
2022-09-10T11:10:45.163Z,98190.75
2022-09-10T11:13:32.693Z,98191.13
2022-09-10T11:16:06.389Z,98190.80
2022-09-10T11:18:43.011Z,98194.23
2022-09-10T11:21:37.714Z,98191.58
2022-09-10T11:24:16.945Z,98192.30
2022-09-10T11:26:46.533Z,98191.33
2022-09-10T11:29:25.459Z,98187.89
2022-09-10T11:32:00.851Z,98183.83
2022-09-10T11:34:59.041Z,98178.38
2022-09-10T11:37:43.353Z,98176.48
2022-09-10T11:40:20.130Z,98174.80
2022-09-10T11:42:53.314Z,98172.33
2022-09-10T11:45:36.360Z,98167.27
2022-09-10T11:48:14.784Z,98163.71
2022-09-10T11:50:53.479Z,98159.11
2022-09-10T11:53:23.398Z,98156.55
2022-09-10T11:56:21.786Z,98153.25
2022-09-10T11:59:04.975Z,98149.54
2022-09-10T12:01:49.426Z,98147.77
2022-09-10T12:04:25.529Z,98144.05
2022-09-10T12:07:11.078Z,98141.53
2022-09-10T12:09:54.771Z,98141.91
2022-09-10T12:12:26.380Z,98137.09
2022-09-10T12:14:54.148Z,98135.45
2022-09-10T12:17:28.597Z,98133.55
2022-09-10T12:19:58.665Z,98134.85
2022-09-10T12:22:30.958Z,98124.08
2022-09-10T12:25:16.853Z,98121.30
2022-09-10T12:27:59.688Z,98118.69
2022-09-10T12:30:29.202Z,98117.73
2022-09-10T12:33:00.623Z,98111.65
2022-09-10T12:35:34.730Z,98107.67
2022-09-10T12:38:33.308Z,98101.34
2022-09-10T12:41:02.182Z,98094.59
2022-09-10T12:43:45.111Z,98090.14
2022-09-10T12:46:13.537Z,98089.95
2022-09-10T12:48:45.690Z,98091.10
2022-09-10T12:51:20.580Z,98085.37
2022-09-10T12:53:47.891Z,98078.38
2022-09-10T12:56:21.639Z,98075.95
2022-09-10T12:58:50.759Z,98076.58
2022-09-10T13:01:46.517Z,98069.39
2022-09-10T13:04:30.188Z,98070.77
2022-09-10T13:07:01.564Z,98070.80
2022-09-10T13:09:31.874Z,98069.79
2022-09-10T13:12:04.196Z,98066.38
2022-09-10T13:14:36.207Z,98070.36
2022-09-10T13:17:04.274Z,98070.13
2022-09-10T13:19:31.629Z,98068.92
2022-09-10T13:21:58.781Z,98065.05
2022-09-10T13:24:57.160Z,98061.36
2022-09-10T13:27:40.553Z,98059.07
2022-09-10T13:30:17.780Z,98066.09
2022-09-10T13:32:52.306Z,98063.56
2022-09-10T13:35:19.859Z,98062.76
2022-09-10T13:37:49.360Z,98063.29
2022-09-10T13:40:47.469Z,98064.61
2022-09-10T13:43:29.038Z,98064.23
2022-09-10T13:46:02.950Z,98057.38
2022-09-10T13:48:43.380Z,98056.86
2022-09-10T13:51:31.208Z,98057.82
2022-09-10T13:54:07.522Z,98054.29
2022-09-10T13:56:36.255Z,98054.38
2022-09-10T13:59:05.515Z,98059.69
2022-09-10T14:01:56.259Z,98057.90
2022-09-10T14:04:26.388Z,98057.74
2022-09-10T14:06:58.339Z,98051.86
2022-09-10T14:09:26.337Z,98049.95
2022-09-10T14:11:54.191Z,98050.04
2022-09-10T14:14:27.337Z,98046.64
2022-09-10T14:17:00.080Z,98048.62
2022-09-10T14:19:37.678Z,98038.89
2022-09-10T14:22:09.424Z,98035.73
2022-09-10T14:24:38.407Z,98022.17
2022-09-10T14:27:06.514Z,98023.02
2022-09-10T14:29:33.334Z,98027.64
2022-09-10T14:32:16.946Z,98018.39
2022-09-10T14:34:43.803Z,98017.58
2022-09-10T14:37:42.706Z,98017.73
2022-09-10T14:40:17.946Z,98016.48
2022-09-10T14:42:47.176Z,98022.30
2022-09-10T14:45:37.827Z,98018.73
2022-09-10T14:48:06.533Z,98019.05
2022-09-10T14:50:34.860Z,98024.20
2022-09-10T14:53:01.792Z,98025.85
2022-09-10T14:55:32.306Z,98029.83
2022-09-10T14:57:59.423Z,98025.86
2022-09-10T15:00:26.471Z,98027.47
2022-09-10T15:02:56.101Z,98029.80
2022-09-10T15:05:23.025Z,98030.79
2022-09-10T15:07:50.358Z,98035.23
2022-09-10T15:10:17.311Z,98035.45
2022-09-10T15:12:47.174Z,98033.30
2022-09-10T15:15:17.270Z,98029.99
2022-09-10T15:17:44.702Z,98029.27
2022-09-10T15:20:14.862Z,98028.16
2022-09-10T15:22:41.627Z,98025.90
2022-09-10T15:25:27.421Z,98024.54
2022-09-10T15:27:54.133Z,98023.38
2022-09-10T15:30:23.164Z,98019.18
2022-09-10T15:32:49.912Z,98014.90
2022-09-10T15:35:16.972Z,98011.50
2022-09-10T15:37:43.766Z,98018.66
2022-09-10T15:40:11.173Z,98022.81
2022-09-10T15:42:37.978Z,98029.54
2022-09-10T15:45:05.016Z,98036.27
2022-09-10T15:47:33.635Z,98039.11
2022-09-10T15:50:00.327Z,98044.11
2022-09-10T15:52:27.072Z,98047.19
2022-09-10T15:54:54.489Z,98044.39
2022-09-10T15:57:21.260Z,98045.93
2022-09-10T15:59:47.994Z,98043.46
2022-09-10T16:02:14.868Z,98045.50
2022-09-10T16:04:43.158Z,98045.90
2022-09-10T16:07:10.134Z,98046.52
2022-09-10T16:09:36.952Z,98045.89
2022-09-10T16:12:03.835Z,98048.14
2022-09-10T16:14:32.215Z,98048.70
2022-09-10T16:16:58.990Z,98054.38
2022-09-10T16:19:25.736Z,98056.46
2022-09-10T16:21:53.237Z,98059.13
2022-09-10T16:24:20.036Z,98060.76
2022-09-10T16:26:48.140Z,98063.55
2022-09-10T16:29:17.994Z,98062.66
2022-09-10T16:31:46.074Z,98067.03
2022-09-10T16:34:16.306Z,98071.26
2022-09-10T16:36:43.791Z,98078.92
2022-09-10T16:39:13.469Z,98082.91
2022-09-10T16:41:41.543Z,98082.58
2022-09-10T16:44:09.269Z,98075.83
2022-09-10T16:46:36.236Z,98071.85
2022-09-10T16:49:03.122Z,98071.23
2022-09-10T16:51:29.929Z,98074.04
2022-09-10T16:54:03.275Z,98070.54
2022-09-10T16:56:35.943Z,98070.28
2022-09-10T16:59:02.684Z,98066.77
2022-09-10T17:01:31.254Z,98069.88
2022-09-10T17:03:58.061Z,98077.58
2022-09-10T17:06:27.071Z,98072.77
2022-09-10T17:08:57.190Z,98066.73
2022-09-10T17:11:26.811Z,98062.09
2022-09-10T17:13:54.352Z,98068.66
2022-09-10T17:16:21.716Z,98075.19
2022-09-10T17:18:56.350Z,98078.48
2022-09-10T17:21:23.086Z,98082.34
2022-09-10T17:23:49.794Z,98078.52
2022-09-10T17:26:18.022Z,98070.13
2022-09-10T17:28:44.848Z,98066.48
2022-09-10T17:31:11.671Z,98070.33
2022-09-10T17:33:39.139Z,98069.82
2022-09-10T17:36:06.084Z,98078.09
2022-09-10T17:38:34.844Z,98077.20
2022-09-10T17:41:03.850Z,98077.77
2022-09-10T17:43:35.637Z,98077.33
2022-09-10T17:46:05.520Z,98071.43
2022-09-10T17:48:33.317Z,98071.63
2022-09-10T17:51:00.304Z,98077.80
2022-09-10T17:53:27.569Z,98078.50
2022-09-10T17:55:54.926Z,98076.20
2022-09-10T17:58:23.286Z,98075.60
2022-09-10T18:00:50.053Z,98079.04
2022-09-10T18:03:17.853Z,98076.25
2022-09-10T18:05:45.996Z,98077.27
2022-09-10T18:08:13.463Z,98076.61
2022-09-10T18:10:40.523Z,98083.77
2022-09-10T18:13:08.335Z,98083.35
2022-09-10T18:15:42.235Z,98087.43
2022-09-10T18:18:09.831Z,98086.83
2022-09-10T18:20:36.786Z,98087.02
2022-09-10T18:23:04.007Z,98083.59
2022-09-10T18:25:32.390Z,98083.61
2022-09-10T18:28:01.604Z,98082.27
2022-09-10T18:30:29.521Z,98083.89
2022-09-10T18:32:56.415Z,98086.19
2022-09-10T18:35:23.382Z,98089.09
2022-09-10T18:37:51.874Z,98095.61
2022-09-10T18:40:19.742Z,98100.61
2022-09-10T18:42:47.921Z,98099.41
2022-09-10T18:45:14.748Z,98100.88
2022-09-10T18:47:45.236Z,98103.31
2022-09-10T18:50:13.462Z,98100.77
2022-09-10T18:52:40.469Z,98100.94
2022-09-10T18:55:07.723Z,98102.95
2022-09-10T18:57:34.459Z,98106.84
2022-09-10T19:00:01.469Z,98103.29
2022-09-10T19:02:28.498Z,98102.25
2022-09-10T19:05:10.744Z,98095.75
2022-09-10T19:07:39.019Z,98091.77
2022-09-10T19:10:07.152Z,98093.28
2022-09-10T19:12:34.294Z,98092.94
2022-09-10T19:15:01.375Z,98095.77
2022-09-10T19:17:28.199Z,98091.44
2022-09-10T19:19:54.928Z,98092.35
2022-09-10T19:22:22.085Z,98093.10
2022-09-10T19:24:56.398Z,98091.69
2022-09-10T19:27:24.241Z,98094.95
2022-09-10T19:30:09.104Z,98094.77
2022-09-10T19:32:35.983Z,98096.01
2022-09-10T19:35:02.807Z,98095.61
2022-09-10T19:37:29.666Z,98089.67
2022-09-10T19:39:57.023Z,98088.69
2022-09-10T19:42:24.666Z,98090.54
2022-09-10T19:44:52.508Z,98092.80
2022-09-10T19:47:20.170Z,98094.30
2022-09-10T19:49:48.335Z,98092.27
2022-09-10T19:52:15.623Z,98085.17
2022-09-10T19:54:42.409Z,98089.99
2022-09-10T19:57:09.123Z,98084.24
2022-09-10T19:59:36.007Z,98080.42
2022-09-10T20:02:02.987Z,98075.36
2022-09-10T20:04:29.944Z,98071.73
2022-09-10T20:06:56.949Z,98068.56
2022-09-10T20:09:24.312Z,98074.91
2022-09-10T20:11:51.264Z,98075.14
2022-09-10T20:14:19.820Z,98075.09
2022-09-10T20:16:46.630Z,98076.63
2022-09-10T20:19:18.527Z,98077.34
2022-09-10T20:21:46.608Z,98079.39
2022-09-10T20:24:14.245Z,98073.22
2022-09-10T20:26:57.219Z,98072.48
2022-09-10T20:29:25.660Z,98072.08
2022-09-10T20:31:53.204Z,98074.14
2022-09-10T20:34:22.040Z,98078.83
2022-09-10T20:36:51.486Z,98076.58
2022-09-10T20:39:21.387Z,98079.54
2022-09-10T20:41:48.787Z,98079.05
2022-09-10T20:44:17.468Z,98081.60
2022-09-10T20:46:44.917Z,98083.91
2022-09-10T20:49:13.493Z,98089.67
2022-09-10T20:51:41.446Z,98091.34
2022-09-10T20:54:11.698Z,98092.92
2022-09-10T20:56:38.569Z,98095.44
2022-09-10T20:59:05.286Z,98095.36
2022-09-10T21:01:32.900Z,98096.91
2022-09-10T21:04:01.456Z,98097.24
2022-09-10T21:06:31.310Z,98096.70
2022-09-10T21:08:59.092Z,98099.23
2022-09-10T21:11:29.020Z,98100.49
2022-09-10T21:13:58.452Z,98098.55
2022-09-10T21:16:28.252Z,98099.06
2022-09-10T21:18:58.671Z,98096.21
2022-09-10T21:21:27.935Z,98097.77
2022-09-10T21:23:57.703Z,98096.00
2022-09-10T21:26:27.487Z,98095.77
2022-09-10T21:28:56.412Z,98097.55
2022-09-10T21:31:23.881Z,98098.66
2022-09-10T21:33:51.410Z,98095.19
2022-09-10T21:36:20.476Z,98097.27
2022-09-10T21:38:49.720Z,98097.89
2022-09-10T21:41:19.386Z,98101.02
2022-09-10T21:43:47.690Z,98101.18
2022-09-10T21:46:15.023Z,98104.29
2022-09-10T21:48:42.685Z,98103.56
2022-09-10T21:51:14.176Z,98102.95
2022-09-10T21:53:42.279Z,98103.34
2022-09-10T21:56:12.058Z,98106.63
2022-09-10T21:58:39.321Z,98103.33
2022-09-10T22:01:12.166Z,98106.76
2022-09-10T22:03:39.962Z,98105.81
2022-09-10T22:06:08.792Z,98101.77
2022-09-10T22:08:37.128Z,98105.29
2022-09-10T22:11:06.578Z,98105.80
2022-09-10T22:13:34.240Z,98107.20
2022-09-10T22:16:01.165Z,98107.81
2022-09-10T22:18:27.988Z,98108.27
2022-09-10T22:21:00.797Z,98105.00
2022-09-10T22:23:30.722Z,98104.14
2022-09-10T22:26:06.778Z,98110.17
2022-09-10T22:28:35.135Z,98108.13
2022-09-10T22:31:20.023Z,98111.38
2022-09-10T22:33:52.076Z,98105.88
2022-09-10T22:36:23.650Z,98108.48
2022-09-10T22:38:53.429Z,98111.36
2022-09-10T22:41:21.601Z,98110.80
2022-09-10T22:43:49.252Z,98114.09
2022-09-10T22:46:16.506Z,98115.27
2022-09-10T22:48:44.546Z,98112.92
2022-09-10T22:51:14.220Z,98116.03
2022-09-10T22:53:42.521Z,98111.91
2022-09-10T22:56:10.386Z,98112.13
2022-09-10T22:58:37.901Z,98112.90
2022-09-10T23:01:06.726Z,98110.73
2022-09-10T23:03:33.675Z,98113.64
2022-09-10T23:06:03.968Z,98121.67
2022-09-10T23:08:32.254Z,98116.75
2022-09-10T23:11:18.519Z,98114.93
2022-09-10T23:13:47.095Z,98115.46
2022-09-10T23:16:18.418Z,98112.44
2022-09-10T23:18:51.089Z,98106.46
2022-09-10T23:21:19.562Z,98105.33
2022-09-10T23:23:48.438Z,98100.66
2022-09-10T23:26:17.313Z,98100.17
2022-09-10T23:28:45.002Z,98096.27
2022-09-10T23:31:21.356Z,98094.81
2022-09-10T23:33:58.388Z,98096.62
2022-09-10T23:36:26.887Z,98093.48
2022-09-10T23:38:54.073Z,98097.30
2022-09-10T23:41:22.030Z,98096.52
2022-09-10T23:43:48.853Z,98096.34
2022-09-10T23:46:15.940Z,98097.84
2022-09-10T23:48:43.711Z,98099.09
2022-09-10T23:51:14.018Z,98095.13
2022-09-10T23:53:41.047Z,98092.89
2022-09-10T23:56:08.679Z,98089.89
2022-09-10T23:58:35.488Z,98094.69
